createdAt,value
2019-03-10T00:02:01.074Z,24.13
2019-03-10T00:04:29.429Z,28.03
2019-03-10T00:06:57.946Z,20.70
2019-03-10T00:09:26.648Z,23.03
2019-03-10T00:11:55.066Z,27.83
2019-03-10T00:14:23.369Z,25.87
2019-03-10T00:16:51.721Z,28.10
2019-03-10T00:19:20.046Z,27.10
2019-03-10T00:21:48.454Z,27.20
2019-03-10T00:24:17.053Z,26.60
2019-03-10T00:26:45.352Z,28.83
2019-03-10T00:29:13.704Z,21.93
2019-03-10T00:31:41.934Z,19.90
2019-03-10T00:34:10.449Z,26.47
2019-03-10T00:36:38.758Z,21.97
2019-03-10T00:39:11.506Z,28.37
2019-03-10T00:41:57.716Z,25.80
2019-03-10T00:44:44.333Z,25.10
2019-03-10T00:47:14.102Z,28.53
2019-03-10T00:49:49.910Z,22.30
2019-03-10T00:52:22.697Z,27.30
2019-03-10T00:54:51.029Z,26.53
2019-03-10T00:57:19.337Z,19.97
2019-03-10T00:59:47.675Z,23.90
2019-03-10T01:02:15.992Z,28.80
2019-03-10T01:04:44.261Z,31.20
2019-03-10T01:07:12.574Z,31.10
2019-03-10T01:09:40.916Z,22.53
2019-03-10T01:12:09.233Z,28.60
2019-03-10T01:14:37.535Z,28.07
2019-03-10T01:17:05.887Z,23.57
2019-03-10T01:19:35.385Z,27.97
2019-03-10T01:22:03.806Z,25.53
2019-03-10T01:24:32.123Z,26.03
2019-03-10T01:27:00.473Z,28.53
2019-03-10T01:29:28.777Z,28.33
2019-03-10T01:32:04.360Z,28.60
2019-03-10T01:34:43.222Z,24.13
2019-03-10T01:37:14.738Z,30.37
2019-03-10T01:39:43.058Z,30.63
2019-03-10T01:42:11.395Z,26.90
2019-03-10T01:44:39.776Z,25.40
2019-03-10T01:47:08.118Z,24.50
2019-03-10T01:49:36.417Z,16.60
2019-03-10T01:52:04.757Z,27.90
2019-03-10T01:54:33.056Z,25.30
2019-03-10T01:57:01.349Z,26.50
2019-03-10T01:59:29.689Z,28.53
2019-03-10T02:01:58.073Z,27.10
2019-03-10T02:04:26.405Z,23.07
2019-03-10T02:06:54.721Z,30.43
2019-03-10T02:09:23.053Z,23.03
2019-03-10T02:11:51.347Z,23.33
2019-03-10T02:14:19.691Z,25.03
2019-03-10T02:16:47.999Z,28.73
2019-03-10T02:19:16.329Z,25.63
2019-03-10T02:21:44.628Z,26.53
2019-03-10T02:24:23.223Z,25.33
2019-03-10T02:26:42.851Z,26.40
2019-03-10T02:29:11.141Z,21.80
2019-03-10T02:31:39.476Z,24.20
2019-03-10T02:34:07.781Z,20.13
2019-03-10T02:36:36.117Z,20.77
2019-03-10T02:39:05.093Z,29.20
2019-03-10T02:41:33.355Z,27.13
2019-03-10T02:44:01.665Z,27.77
2019-03-10T02:46:29.927Z,19.53
2019-03-10T02:48:58.191Z,29.47
2019-03-10T02:51:26.410Z,30.90
2019-03-10T02:53:54.759Z,36.07
2019-03-10T02:56:22.985Z,29.40
2019-03-10T02:58:51.236Z,19.67
2019-03-10T03:01:19.542Z,16.13
2019-03-10T03:03:47.886Z,16.83
2019-03-10T03:06:16.201Z,18.63
2019-03-10T03:08:44.558Z,13.67
2019-03-10T03:11:12.849Z,11.10
2019-03-10T03:13:41.148Z,11.57
2019-03-10T03:16:09.425Z,15.17
2019-03-10T03:18:37.792Z,13.73
2019-03-10T03:21:06.166Z,11.53
2019-03-10T03:23:46.357Z,10.33
2019-03-10T03:26:27.541Z,12.43
2019-03-10T03:28:55.948Z,11.17
2019-03-10T03:31:24.420Z,9.80
2019-03-10T03:33:52.772Z,14.43
2019-03-10T03:36:25.368Z,10.43
2019-03-10T03:38:55.229Z,13.90
2019-03-10T03:41:24.062Z,11.10
2019-03-10T03:43:52.379Z,10.43
2019-03-10T03:46:20.797Z,17.33
2019-03-10T03:48:49.199Z,13.03
2019-03-10T03:51:17.583Z,11.47
2019-03-10T03:53:46.028Z,13.07
2019-03-10T03:56:14.358Z,14.80
2019-03-10T03:58:42.772Z,16.33
2019-03-10T04:01:21.582Z,16.60
2019-03-10T04:03:49.989Z,15.20
2019-03-10T04:06:18.310Z,14.07
2019-03-10T04:08:46.578Z,14.93
2019-03-10T04:11:14.904Z,17.53
2019-03-10T04:13:43.245Z,14.00
2019-03-10T04:16:11.567Z,11.37
2019-03-10T04:18:39.946Z,18.50
2019-03-10T04:21:08.370Z,13.47
2019-03-10T04:23:36.748Z,15.27
2019-03-10T04:26:05.090Z,13.93
2019-03-10T04:28:33.479Z,12.87
2019-03-10T04:31:01.823Z,13.20
2019-03-10T04:33:30.128Z,14.87
2019-03-10T04:35:58.478Z,16.20
2019-03-10T04:38:26.812Z,18.07
2019-03-10T04:40:55.214Z,20.30
2019-03-10T04:43:23.548Z,17.97
2019-03-10T04:45:51.946Z,16.40
2019-03-10T04:48:20.350Z,19.47
2019-03-10T04:50:48.658Z,13.73
2019-03-10T04:53:16.999Z,17.33
2019-03-10T04:55:46.952Z,19.27
2019-03-10T04:58:16.652Z,17.40
2019-03-10T05:00:46.655Z,18.53
2019-03-10T05:03:14.956Z,21.00
2019-03-10T05:05:43.265Z,19.03
2019-03-10T05:08:11.611Z,21.90
2019-03-10T05:10:39.922Z,16.67
2019-03-10T05:13:08.172Z,19.03
2019-03-10T05:15:36.482Z,28.37
2019-03-10T05:18:04.820Z,24.83
2019-03-10T05:20:33.129Z,19.77
2019-03-10T05:23:19.363Z,22.57
2019-03-10T05:25:47.672Z,19.33
2019-03-10T05:28:15.893Z,22.03
2019-03-10T05:30:44.142Z,19.23
2019-03-10T05:33:12.441Z,28.17
2019-03-10T05:35:40.800Z,136.47
2019-03-10T05:38:09.130Z,116.77
2019-03-10T05:40:37.457Z,84.37
2019-03-10T05:43:05.757Z,40.53
2019-03-10T05:45:34.023Z,25.97
2019-03-10T05:48:02.403Z,27.93
2019-03-10T05:50:30.823Z,22.93
2019-03-10T05:53:00.728Z,29.50
2019-03-10T05:55:29.178Z,36.67
2019-03-10T05:57:57.508Z,35.47
2019-03-10T06:00:25.756Z,35.93
2019-03-10T06:02:53.989Z,18.10
2019-03-10T06:05:22.303Z,18.20
2019-03-10T06:07:50.628Z,17.70
2019-03-10T06:10:18.869Z,10.63
2019-03-10T06:12:47.097Z,12.20
2019-03-10T06:15:15.356Z,10.80
2019-03-10T06:17:43.655Z,9.63
2019-03-10T06:20:11.981Z,12.13
2019-03-10T06:22:40.286Z,9.13
2019-03-10T06:25:08.611Z,10.07
2019-03-10T06:27:36.844Z,11.20
2019-03-10T06:30:06.641Z,11.23
2019-03-10T06:32:34.872Z,14.27
2019-03-10T06:35:03.387Z,9.00
2019-03-10T06:37:31.613Z,9.93
2019-03-10T06:39:59.868Z,8.37
2019-03-10T06:42:28.166Z,7.63
2019-03-10T06:44:56.716Z,11.73
2019-03-10T06:47:24.992Z,8.63
2019-03-10T06:49:53.338Z,7.67
2019-03-10T06:52:21.536Z,5.77
2019-03-10T06:54:49.758Z,6.03
2019-03-10T06:57:18.102Z,6.33
2019-03-10T06:59:46.447Z,3.17
2019-03-10T07:02:14.715Z,4.63
2019-03-10T07:04:43.010Z,7.07
2019-03-10T07:07:11.449Z,9.90
2019-03-10T07:09:39.749Z,7.30
2019-03-10T07:12:08.081Z,8.60
2019-03-10T07:14:36.373Z,6.87
2019-03-10T07:17:07.767Z,8.07
2019-03-10T07:19:36.151Z,5.47
2019-03-10T07:22:04.493Z,6.50
2019-03-10T07:24:32.729Z,3.97
2019-03-10T07:27:02.249Z,6.63
2019-03-10T07:29:32.866Z,7.30
2019-03-10T07:32:05.809Z,6.97
2019-03-10T07:34:51.129Z,5.40
2019-03-10T07:37:37.482Z,7.00
2019-03-10T07:40:13.890Z,7.90
2019-03-10T07:43:00.134Z,5.67
2019-03-10T07:45:42.372Z,7.37
2019-03-10T07:48:12.259Z,5.93
2019-03-10T07:50:44.865Z,5.00
2019-03-10T07:53:15.588Z,5.53
2019-03-10T07:55:48.177Z,4.40
2019-03-10T07:58:24.120Z,5.53
2019-03-10T08:01:00.022Z,3.53
2019-03-10T08:03:29.998Z,8.07
2019-03-10T08:06:06.025Z,4.17
2019-03-10T08:08:35.996Z,5.30
2019-03-10T08:11:05.939Z,2.37
2019-03-10T08:13:35.937Z,4.27
2019-03-10T08:16:11.964Z,4.77
2019-03-10T08:18:44.858Z,3.87
2019-03-10T08:21:20.573Z,5.17
2019-03-10T08:23:59.182Z,5.43
2019-03-10T08:26:29.131Z,5.43
2019-03-10T08:29:02.029Z,3.30
2019-03-10T08:31:32.004Z,3.67
2019-03-10T08:36:56.185Z,2.93
2019-03-10T08:39:26.075Z,2.43
2019-03-10T08:42:01.502Z,3.23
2019-03-10T08:44:43.494Z,3.10
2019-03-10T08:47:31.659Z,2.13
2019-03-10T08:50:04.300Z,1.83
2019-03-10T08:52:39.962Z,3.87
2019-03-10T08:55:13.061Z,3.70
2019-03-10T08:57:52.008Z,1.37
2019-03-10T09:00:38.086Z,2.63
2019-03-10T09:03:10.718Z,2.30
2019-03-10T09:05:43.400Z,2.20
2019-03-10T09:08:15.869Z,2.20
2019-03-10T09:10:51.267Z,1.63
2019-03-10T09:13:30.245Z,1.93
2019-03-10T09:16:00.103Z,2.20
2019-03-10T09:18:33.205Z,1.80
2019-03-10T09:21:09.284Z,3.47
2019-03-10T09:23:42.234Z,2.80
2019-03-10T09:26:30.310Z,2.13
2019-03-10T09:29:09.374Z,1.73
2019-03-10T09:31:45.468Z,2.17
2019-03-10T09:34:15.370Z,2.70
2019-03-10T09:37:01.573Z,3.20
2019-03-10T09:39:43.400Z,1.67
2019-03-10T09:42:24.956Z,2.80
2019-03-10T09:44:54.928Z,1.70
2019-03-10T09:47:27.861Z,2.43
2019-03-10T09:50:14.137Z,2.70
2019-03-10T09:52:58.977Z,1.93
2019-03-10T09:55:48.209Z,0.53
2019-03-10T09:58:34.697Z,2.23
2019-03-10T10:01:22.856Z,2.67
2019-03-10T10:03:58.680Z,0.70
2019-03-10T10:06:45.216Z,0.50
2019-03-10T10:09:24.086Z,0.93
2019-03-10T10:11:56.608Z,0.97
2019-03-10T10:14:44.536Z,1.10
2019-03-10T10:17:17.452Z,0.30
2019-03-10T10:19:50.402Z,0.20
2019-03-10T10:22:29.639Z,0.30
2019-03-10T10:24:59.572Z,0.30
2019-03-10T10:27:32.389Z,1.33
2019-03-10T10:30:02.337Z,1.77
2019-03-10T10:32:47.439Z,0.20
2019-03-10T10:35:23.173Z,0.43
2019-03-10T10:40:56.498Z,1.07
2019-03-10T10:43:41.682Z,1.50
2019-03-10T10:46:11.555Z,1.30
2019-03-10T10:48:43.951Z,0.83
2019-03-10T10:51:17.091Z,2.37
2019-03-10T10:53:53.064Z,0.50
2019-03-10T10:56:39.447Z,0.40
2019-03-10T10:59:12.424Z,5.07
2019-03-10T11:01:48.196Z,0.93
2019-03-10T11:04:18.189Z,4.73
2019-03-10T11:07:03.010Z,3.53
2019-03-10T11:09:39.057Z,4.10
2019-03-10T11:12:27.050Z,3.23
2019-03-10T11:14:58.080Z,2.40
2019-03-10T11:17:46.271Z,3.57
2019-03-10T11:20:16.244Z,2.87
2019-03-10T11:22:46.185Z,5.83
2019-03-10T11:25:18.873Z,1.47
2019-03-10T11:27:51.523Z,0.97
2019-03-10T11:30:36.445Z,1.63
2019-03-10T11:33:22.751Z,1.13
2019-03-10T11:35:53.692Z,1.77
2019-03-10T11:38:23.637Z,0.50
2019-03-10T11:41:10.078Z,0.20
2019-03-10T11:43:45.462Z,0.37
2019-03-10T11:46:25.088Z,0.73
2019-03-10T11:49:13.398Z,2.77
2019-03-10T11:52:01.729Z,1.40
2019-03-10T11:54:31.671Z,1.80
2019-03-10T11:57:01.657Z,3.37
2019-03-10T11:59:34.021Z,2.73
2019-03-10T12:02:16.424Z,2.00
2019-03-10T12:05:00.738Z,3.90
2019-03-10T12:07:33.532Z,2.73
2019-03-10T12:10:01.877Z,3.60
2019-03-10T12:12:30.180Z,1.70
2019-03-10T12:14:58.514Z,3.00
2019-03-10T12:17:26.745Z,3.17
2019-03-10T12:19:55.086Z,0.93
2019-03-10T12:22:23.390Z,1.77
2019-03-10T12:24:51.733Z,1.37
2019-03-10T12:27:19.974Z,4.23
2019-03-10T12:29:48.232Z,3.73
2019-03-10T12:32:16.534Z,1.43
2019-03-10T12:34:44.785Z,2.17
2019-03-10T12:37:13.184Z,4.07
2019-03-10T12:39:41.469Z,3.53
2019-03-10T12:42:09.806Z,1.83
2019-03-10T12:44:38.120Z,3.40
2019-03-10T12:47:06.471Z,3.20
2019-03-10T12:49:34.773Z,1.80
2019-03-10T12:52:03.111Z,1.93
2019-03-10T12:54:31.343Z,3.23
2019-03-10T12:56:59.601Z,3.50
2019-03-10T12:59:27.828Z,1.63
2019-03-10T13:01:56.165Z,5.50
2019-03-10T13:04:24.542Z,1.50
2019-03-10T13:06:52.807Z,3.43
2019-03-10T13:09:21.168Z,2.83
2019-03-10T13:11:50.453Z,2.20
2019-03-10T13:14:20.725Z,4.83
2019-03-10T13:16:48.989Z,6.73
2019-03-10T13:19:17.295Z,4.97
2019-03-10T13:21:45.607Z,5.30
2019-03-10T13:24:13.996Z,3.20
2019-03-10T13:26:42.400Z,3.87
2019-03-10T13:29:13.618Z,2.73
2019-03-10T13:31:41.941Z,3.17
2019-03-10T13:34:10.284Z,2.53
2019-03-10T13:36:38.568Z,5.17
2019-03-10T13:39:07.062Z,3.60
2019-03-10T13:41:35.439Z,4.13
2019-03-10T13:44:03.766Z,7.27
2019-03-10T13:46:32.069Z,3.90
2019-03-10T13:49:00.414Z,5.87
2019-03-10T13:51:28.722Z,8.47
2019-03-10T13:53:57.055Z,3.53
2019-03-10T13:56:25.349Z,8.27
2019-03-10T13:58:53.601Z,7.97
2019-03-10T14:01:21.829Z,3.97
2019-03-10T14:03:50.097Z,4.50
2019-03-10T14:06:18.385Z,5.07
2019-03-10T14:08:46.725Z,5.33
2019-03-10T14:11:15.097Z,7.30
2019-03-10T14:13:43.422Z,8.20
2019-03-10T14:16:11.725Z,7.80
2019-03-10T14:18:40.059Z,4.87
2019-03-10T14:21:08.318Z,9.67
2019-03-10T14:23:36.626Z,6.33
2019-03-10T14:26:04.959Z,7.17
2019-03-10T14:28:33.277Z,10.53
2019-03-10T14:31:01.618Z,5.13
2019-03-10T14:33:30.063Z,9.20
2019-03-10T14:35:58.434Z,9.87
2019-03-10T14:38:30.058Z,6.37
2019-03-10T14:40:58.505Z,8.13
2019-03-10T14:43:26.801Z,9.67
2019-03-10T14:45:55.150Z,10.17
2019-03-10T14:48:23.454Z,9.60
2019-03-10T14:50:51.705Z,12.03
2019-03-10T14:53:20.006Z,9.13
2019-03-10T14:55:48.341Z,15.13
2019-03-10T14:58:16.657Z,15.73
2019-03-10T15:00:44.985Z,10.00
2019-03-10T15:03:13.309Z,13.27
2019-03-10T15:05:41.733Z,10.93
2019-03-10T15:08:09.967Z,15.20
2019-03-10T15:10:38.359Z,13.67
2019-03-10T15:13:06.622Z,13.20
2019-03-10T15:15:35.006Z,14.60
2019-03-10T15:18:03.363Z,13.40
2019-03-10T15:20:31.628Z,13.07
2019-03-10T15:22:59.972Z,14.93
2019-03-10T15:25:28.279Z,11.77
2019-03-10T15:27:56.633Z,16.53
2019-03-10T15:30:25.446Z,11.30
2019-03-10T15:32:53.792Z,14.90
2019-03-10T15:35:22.093Z,14.20
2019-03-10T15:37:50.340Z,13.07
2019-03-10T15:40:19.079Z,13.70
2019-03-10T15:42:47.587Z,16.47
2019-03-10T15:45:16.810Z,14.17
2019-03-10T15:47:45.106Z,15.00
2019-03-10T15:50:17.876Z,14.20
2019-03-10T15:52:46.254Z,11.63
2019-03-10T15:55:14.590Z,12.67
2019-03-10T15:57:50.150Z,10.50
2019-03-10T16:00:20.233Z,11.40
2019-03-10T16:02:48.562Z,7.97
2019-03-10T16:05:16.972Z,14.37
2019-03-10T16:07:45.273Z,11.23
2019-03-10T16:10:14.323Z,11.10
2019-03-10T16:12:42.661Z,12.00
2019-03-10T16:15:12.520Z,11.07
2019-03-10T16:17:40.970Z,12.30
2019-03-10T16:20:10.487Z,9.77
2019-03-10T16:22:38.855Z,9.60
2019-03-10T16:25:08.701Z,9.17
2019-03-10T16:27:37.056Z,9.23
2019-03-10T16:30:09.746Z,7.73
2019-03-10T16:32:38.052Z,7.73
2019-03-10T16:35:07.587Z,13.27
2019-03-10T16:37:36.022Z,11.23
2019-03-10T16:40:05.837Z,9.33
2019-03-10T16:42:34.327Z,13.73
2019-03-10T16:45:02.749Z,12.13
2019-03-10T16:47:31.096Z,9.77
2019-03-10T16:49:59.557Z,7.33
2019-03-10T16:52:27.993Z,9.40
2019-03-10T16:54:56.469Z,6.60
2019-03-10T16:57:25.008Z,10.63
2019-03-10T16:59:53.515Z,11.33
2019-03-10T17:02:21.848Z,7.07
2019-03-10T17:04:50.170Z,8.20
2019-03-10T17:07:18.461Z,8.60
2019-03-10T17:09:46.829Z,9.60
2019-03-10T17:12:15.237Z,14.13
2019-03-10T17:14:43.577Z,6.37
2019-03-10T17:17:11.930Z,9.67
2019-03-10T17:19:40.228Z,9.77
2019-03-10T17:22:08.505Z,7.47
2019-03-10T17:24:36.784Z,8.47
2019-03-10T17:27:05.208Z,9.10
2019-03-10T17:29:33.525Z,8.30
2019-03-10T17:32:01.868Z,10.13
2019-03-10T17:34:30.089Z,7.83
2019-03-10T17:36:58.419Z,6.00
2019-03-10T17:39:26.827Z,9.57
2019-03-10T17:41:55.171Z,5.63
2019-03-10T17:44:23.467Z,8.30
2019-03-10T17:46:51.789Z,9.30
2019-03-10T17:49:20.095Z,7.87
2019-03-10T17:51:48.696Z,7.07
2019-03-10T17:54:17.104Z,7.93
2019-03-10T17:57:04.720Z,8.47
2019-03-10T17:59:33.066Z,12.83
2019-03-10T18:02:08.923Z,8.10
2019-03-10T18:04:31.728Z,8.10
2019-03-10T18:07:00.026Z,8.03
2019-03-10T18:09:28.437Z,7.03
2019-03-10T18:11:56.736Z,9.37
2019-03-10T18:14:25.141Z,7.13
2019-03-10T18:16:53.506Z,4.67
2019-03-10T18:19:21.775Z,5.00
2019-03-10T18:21:50.059Z,5.33
2019-03-10T18:24:18.397Z,5.77
2019-03-10T18:26:46.690Z,3.63
2019-03-10T18:29:15.085Z,4.60
2019-03-10T18:31:43.375Z,5.20
2019-03-10T18:34:11.794Z,4.93
2019-03-10T18:36:40.077Z,4.07
2019-03-10T18:39:08.556Z,6.10
2019-03-10T18:41:36.837Z,3.83
2019-03-10T18:44:05.212Z,8.13
2019-03-10T18:46:33.556Z,3.97
2019-03-10T18:49:01.915Z,7.17
2019-03-10T18:51:30.260Z,7.23
2019-03-10T18:53:58.631Z,3.57
2019-03-10T18:56:27.043Z,8.17
2019-03-10T18:58:55.258Z,7.37
2019-03-10T19:01:23.588Z,8.00
2019-03-10T19:03:51.887Z,6.47
2019-03-10T19:06:20.223Z,9.97
2019-03-10T19:08:48.460Z,9.30
2019-03-10T19:11:17.405Z,8.47
2019-03-10T19:13:45.771Z,6.57
2019-03-10T19:16:15.517Z,9.43
2019-03-10T19:18:44.229Z,7.00
2019-03-10T19:21:13.178Z,6.27
2019-03-10T19:23:41.736Z,2.70
2019-03-10T19:26:11.373Z,5.80
2019-03-10T19:28:40.200Z,5.60
2019-03-10T19:31:08.546Z,2.63
2019-03-10T19:33:36.858Z,1.43
2019-03-10T19:36:07.643Z,3.73
2019-03-10T19:38:36.219Z,1.90
2019-03-10T19:41:04.591Z,3.67
2019-03-10T19:43:32.988Z,2.33
2019-03-10T19:46:01.412Z,2.40
2019-03-10T19:48:29.854Z,3.63
2019-03-10T19:50:58.764Z,2.50
2019-03-10T19:53:28.805Z,3.27
2019-03-10T19:55:57.945Z,3.10
2019-03-10T19:58:27.449Z,6.03
2019-03-10T20:00:56.395Z,2.70
2019-03-10T20:03:25.042Z,1.70
2019-03-10T20:05:54.648Z,2.57
2019-03-10T20:08:23.707Z,2.93
2019-03-10T20:10:52.245Z,2.50
2019-03-10T20:13:20.862Z,2.97
2019-03-10T20:15:52.428Z,4.10
2019-03-10T20:18:19.969Z,2.83
2019-03-10T20:20:48.293Z,3.20
2019-03-10T20:23:16.612Z,3.13
2019-03-10T20:25:45.058Z,3.30
2019-03-10T20:28:13.757Z,3.63
2019-03-10T20:30:42.736Z,3.47
2019-03-10T20:33:11.148Z,2.57
2019-03-10T20:35:40.284Z,3.17
2019-03-10T20:38:08.967Z,3.67
2019-03-10T20:40:38.142Z,4.60
2019-03-10T20:43:06.619Z,4.00
2019-03-10T20:45:36.843Z,2.37
2019-03-10T20:48:05.902Z,3.40
2019-03-10T20:50:34.298Z,2.90
2019-03-10T20:53:02.798Z,5.87
2019-03-10T20:55:31.029Z,4.17
2019-03-10T20:57:59.364Z,3.73
2019-03-10T21:00:28.081Z,3.57
2019-03-10T21:02:56.967Z,1.93
2019-03-10T21:05:25.462Z,6.60
2019-03-10T21:07:54.577Z,3.77
2019-03-10T21:10:24.251Z,3.30
2019-03-10T21:12:53.039Z,4.77
2019-03-10T21:15:21.973Z,4.70
2019-03-10T21:17:50.355Z,5.80
2019-03-10T21:20:19.345Z,3.87
2019-03-10T21:22:47.641Z,5.03
2019-03-10T21:25:17.080Z,2.83
2019-03-10T21:27:45.387Z,2.77
2019-03-10T21:30:15.013Z,5.27
2019-03-10T21:32:43.316Z,4.63
2019-03-10T21:35:17.550Z,2.13
2019-03-10T21:37:42.775Z,3.27
2019-03-10T21:40:13.181Z,4.07
2019-03-10T21:42:41.532Z,7.57
2019-03-10T21:45:11.214Z,5.90
2019-03-10T21:47:39.611Z,3.63
2019-03-10T21:50:09.898Z,5.40
2019-03-10T21:52:38.527Z,5.30
2019-03-10T21:55:08.837Z,5.13
2019-03-10T21:57:37.230Z,1.80
2019-03-10T22:00:07.048Z,5.77
2019-03-10T22:02:36.838Z,6.53
2019-03-10T22:05:05.613Z,5.70
2019-03-10T22:07:34.029Z,6.83
2019-03-10T22:10:02.613Z,4.20
2019-03-10T22:12:32.032Z,4.30
2019-03-10T22:15:11.502Z,3.20
2019-03-10T22:17:40.111Z,2.43
2019-03-10T22:20:15.701Z,5.90
2019-03-10T22:22:49.304Z,2.10
2019-03-10T22:25:14.494Z,5.20
2019-03-10T22:27:45.396Z,7.40
2019-03-10T22:30:19.462Z,6.80
2019-03-10T22:32:47.919Z,4.87
2019-03-10T22:35:16.317Z,3.87
2019-03-10T22:37:44.684Z,6.43
2019-03-10T22:40:13.904Z,4.00
2019-03-10T22:42:42.234Z,5.00
2019-03-10T22:45:12.121Z,5.33
2019-03-10T22:47:40.350Z,7.50
2019-03-10T22:50:10.164Z,11.10
2019-03-10T22:52:38.457Z,5.77
2019-03-10T22:55:07.797Z,7.57
2019-03-10T22:57:36.102Z,9.57
2019-03-10T23:00:08.656Z,6.17
2019-03-10T23:02:36.961Z,5.80
2019-03-10T23:05:06.000Z,10.83
2019-03-10T23:07:34.290Z,8.97
2019-03-10T23:10:02.767Z,9.43
2019-03-10T23:12:31.111Z,13.17
2019-03-10T23:14:59.417Z,8.63
2019-03-10T23:17:27.750Z,7.83
2019-03-10T23:19:56.045Z,6.00
2019-03-10T23:22:24.385Z,9.90
2019-03-10T23:24:52.782Z,7.20
2019-03-10T23:27:21.388Z,7.10
2019-03-10T23:29:50.068Z,7.83
2019-03-10T23:32:18.881Z,9.00
2019-03-10T23:34:47.345Z,6.43
2019-03-10T23:37:15.675Z,6.47
2019-03-10T23:39:44.068Z,6.90
2019-03-10T23:42:12.394Z,7.03
2019-03-10T23:44:40.726Z,5.23
2019-03-10T23:47:09.022Z,4.97
2019-03-10T23:49:37.314Z,5.03
2019-03-10T23:52:05.582Z,6.27
2019-03-10T23:54:33.916Z,5.67
2019-03-10T23:57:02.214Z,5.27
2019-03-10T23:59:30.544Z,9.03
